createdAt,value
2023-09-07T00:01:09.233Z,4.70
2023-09-07T00:03:40.373Z,4.87
2023-09-07T00:06:07.387Z,4.63
2023-09-07T00:08:35.166Z,4.43
2023-09-07T00:11:05.431Z,4.20
2023-09-07T00:13:33.452Z,3.60
2023-09-07T00:16:03.874Z,4.17
2023-09-07T00:18:32.021Z,3.77
2023-09-07T00:21:00.760Z,4.70
2023-09-07T00:23:28.677Z,3.97
2023-09-07T00:25:56.282Z,3.93
2023-09-07T00:28:24.501Z,3.83
2023-09-07T00:30:52.200Z,4.17
2023-09-07T00:33:21.252Z,3.93
2023-09-07T00:35:48.901Z,4.37
2023-09-07T00:38:16.569Z,4.17
2023-09-07T00:40:45.328Z,3.53
2023-09-07T00:43:13.155Z,4.40
2023-09-07T00:45:41.226Z,4.27
2023-09-07T00:48:09.660Z,3.73
2023-09-07T00:50:38.964Z,3.97
2023-09-07T00:53:08.204Z,4.10
2023-09-07T00:55:36.763Z,3.80
2023-09-07T00:58:05.766Z,3.60
2023-09-07T01:00:34.186Z,3.80
2023-09-07T01:03:02.306Z,3.60
2023-09-07T01:05:36.955Z,4.10
2023-09-07T01:08:14.107Z,4.17
2023-09-07T01:10:41.780Z,4.13
2023-09-07T01:13:09.525Z,3.97
2023-09-07T01:15:37.337Z,4.17
2023-09-07T01:18:21.758Z,4.27
2023-09-07T01:20:52.642Z,3.70
2023-09-07T01:23:22.567Z,3.80
2023-09-07T01:25:51.932Z,3.70
2023-09-07T01:28:20.617Z,4.00
2023-09-07T01:30:48.759Z,4.33
2023-09-07T01:33:16.354Z,4.50
2023-09-07T01:35:44.026Z,4.50
2023-09-07T01:38:11.760Z,4.20
2023-09-07T01:40:40.777Z,4.17
2023-09-07T01:43:08.725Z,5.30
2023-09-07T01:45:36.403Z,4.50
2023-09-07T01:48:04.938Z,4.40
2023-09-07T01:50:32.529Z,4.00
2023-09-07T01:53:00.159Z,4.20
2023-09-07T01:55:29.563Z,3.90
2023-09-07T01:57:58.672Z,3.97
2023-09-07T02:00:26.308Z,3.67
2023-09-07T02:02:54.024Z,3.93
2023-09-07T02:05:22.371Z,3.80
2023-09-07T02:07:50.918Z,4.10
2023-09-07T02:10:19.312Z,4.30
2023-09-07T02:12:47.621Z,4.50
2023-09-07T02:15:16.625Z,3.70
2023-09-07T02:17:46.123Z,4.13
2023-09-07T02:20:14.385Z,4.50
2023-09-07T02:22:43.778Z,5.30
2023-09-07T02:25:11.505Z,4.33
2023-09-07T02:27:39.094Z,4.70
2023-09-07T02:30:08.450Z,4.80
2023-09-07T02:32:37.523Z,4.43
2023-09-07T02:35:05.710Z,4.60
2023-09-07T02:37:33.278Z,4.20
2023-09-07T02:40:00.900Z,5.00
2023-09-07T02:42:28.508Z,4.80
2023-09-07T02:44:56.188Z,5.10
2023-09-07T02:47:23.961Z,5.00
2023-09-07T02:49:52.883Z,4.33
2023-09-07T02:52:20.475Z,4.70
2023-09-07T02:54:48.456Z,5.07
2023-09-07T02:57:16.125Z,4.27
2023-09-07T02:59:45.160Z,4.00
2023-09-07T03:02:13.438Z,4.10
2023-09-07T03:04:41.191Z,4.30
2023-09-07T03:07:10.539Z,4.50
2023-09-07T03:09:38.975Z,4.30
2023-09-07T03:12:07.768Z,4.77
2023-09-07T03:14:35.345Z,4.80
2023-09-07T03:17:04.688Z,4.87
2023-09-07T03:19:32.777Z,4.27
2023-09-07T03:22:00.613Z,4.93
2023-09-07T03:24:29.840Z,5.03
2023-09-07T03:26:57.507Z,4.20
2023-09-07T03:29:25.370Z,4.40
2023-09-07T03:31:53.160Z,4.03
2023-09-07T03:34:22.013Z,4.23
2023-09-07T03:36:49.904Z,4.37
2023-09-07T03:39:20.028Z,4.70
2023-09-07T03:41:49.310Z,4.90
2023-09-07T03:44:16.966Z,4.80
2023-09-07T03:46:44.687Z,5.57
2023-09-07T03:49:12.327Z,4.60
2023-09-07T03:51:40.013Z,5.70
2023-09-07T03:54:07.717Z,4.73
2023-09-07T03:56:35.394Z,4.70
2023-09-07T03:59:04.436Z,4.10
2023-09-07T04:01:32.183Z,5.10
2023-09-07T04:04:00.051Z,4.70
2023-09-07T04:06:27.717Z,4.30
2023-09-07T04:08:55.381Z,5.23
2023-09-07T04:11:23.035Z,5.60
2023-09-07T04:13:50.739Z,5.50
2023-09-07T04:16:19.652Z,5.00
2023-09-07T04:18:47.369Z,4.47
2023-09-07T04:21:15.025Z,4.03
2023-09-07T04:23:42.660Z,4.60
2023-09-07T04:26:11.909Z,4.93
2023-09-07T04:28:40.388Z,4.70
2023-09-07T04:31:08.794Z,4.70
2023-09-07T04:33:37.981Z,4.73
2023-09-07T04:36:10.912Z,5.07
2023-09-07T04:38:38.666Z,4.77
2023-09-07T04:41:10.050Z,5.17
2023-09-07T04:43:38.760Z,5.17
2023-09-07T04:46:06.419Z,4.90
2023-09-07T04:48:35.149Z,5.10
2023-09-07T04:51:05.417Z,5.50
2023-09-07T04:53:35.879Z,5.50
2023-09-07T04:56:04.446Z,4.90
2023-09-07T04:58:32.483Z,5.17
2023-09-07T05:01:04.618Z,5.00
2023-09-07T05:03:32.878Z,5.23
2023-09-07T05:06:00.599Z,5.23
2023-09-07T05:08:29.935Z,4.80
2023-09-07T05:10:58.840Z,5.50
2023-09-07T05:13:27.570Z,5.50
2023-09-07T05:15:57.414Z,5.07
2023-09-07T05:18:25.342Z,5.40
2023-09-07T05:20:53.384Z,5.37
2023-09-07T05:23:22.468Z,5.77
2023-09-07T05:25:53.441Z,5.10
2023-09-07T05:28:22.363Z,5.57
2023-09-07T05:30:50.739Z,5.03
2023-09-07T05:33:19.958Z,5.23
2023-09-07T05:35:48.344Z,4.60
2023-09-07T05:38:16.305Z,5.40
2023-09-07T05:40:46.206Z,5.10
2023-09-07T05:43:15.479Z,4.93
2023-09-07T05:45:44.293Z,4.70
2023-09-07T05:48:12.115Z,5.27
2023-09-07T05:50:40.749Z,5.10
2023-09-07T05:53:08.658Z,4.33
2023-09-07T05:55:36.469Z,5.10
2023-09-07T05:58:06.859Z,4.33
2023-09-07T06:00:36.363Z,5.20
2023-09-07T06:03:05.175Z,4.30
2023-09-07T06:05:33.174Z,4.63
2023-09-07T06:08:00.861Z,5.53
2023-09-07T06:10:30.022Z,4.17
2023-09-07T06:12:58.112Z,4.50
2023-09-07T06:15:27.149Z,4.60
2023-09-07T06:17:56.337Z,4.77
2023-09-07T06:20:24.410Z,4.20
2023-09-07T06:22:52.545Z,4.37
2023-09-07T06:25:21.147Z,5.37
2023-09-07T06:27:49.065Z,4.10
2023-09-07T06:30:16.773Z,4.10
2023-09-07T06:32:44.888Z,3.70
2023-09-07T06:35:13.993Z,3.80
2023-09-07T06:37:44.397Z,3.57
2023-09-07T06:40:12.689Z,4.53
2023-09-07T06:42:40.282Z,3.90
2023-09-07T06:45:09.346Z,3.20
2023-09-07T06:47:37.100Z,3.73
2023-09-07T06:50:05.563Z,3.70
2023-09-07T06:52:34.658Z,4.10
2023-09-07T06:55:02.626Z,3.43
2023-09-07T06:57:30.902Z,3.50
2023-09-07T06:59:58.669Z,4.10
2023-09-07T07:02:26.276Z,3.60
2023-09-07T07:04:54.076Z,3.90
2023-09-07T07:07:22.068Z,3.57
2023-09-07T07:09:53.645Z,3.07
2023-09-07T07:12:21.989Z,3.67
2023-09-07T07:14:49.751Z,3.87
2023-09-07T07:17:17.505Z,3.60
2023-09-07T07:19:45.412Z,3.60
2023-09-07T07:22:14.874Z,3.67
2023-09-07T07:24:42.546Z,4.17
2023-09-07T07:27:12.632Z,3.60
2023-09-07T07:29:40.452Z,3.37
2023-09-07T07:32:08.187Z,3.37
2023-09-07T07:34:35.842Z,3.63
2023-09-07T07:37:04.475Z,3.93
2023-09-07T07:39:32.250Z,3.53
2023-09-07T07:42:00.617Z,3.80
2023-09-07T07:44:29.693Z,3.50
2023-09-07T07:46:57.643Z,4.03
2023-09-07T07:49:25.865Z,3.80
2023-09-07T07:51:56.468Z,4.03
2023-09-07T07:54:25.936Z,3.70
2023-09-07T07:56:53.556Z,3.67
2023-09-07T07:59:21.388Z,3.90
2023-09-07T08:01:50.347Z,3.80
2023-09-07T08:04:18.116Z,4.10
2023-09-07T08:06:45.747Z,4.03
2023-09-07T08:09:14.403Z,4.70
2023-09-07T08:11:42.070Z,4.10
2023-09-07T08:14:09.980Z,4.23
2023-09-07T08:16:38.041Z,4.57
2023-09-07T08:19:12.176Z,3.83
2023-09-07T08:21:40.728Z,3.50
2023-09-07T08:24:09.027Z,3.83
2023-09-07T08:26:40.650Z,4.00
2023-09-07T08:29:09.465Z,3.57
2023-09-07T08:31:39.646Z,3.40
2023-09-07T08:34:12.186Z,3.57
2023-09-07T08:36:40.069Z,3.80
2023-09-07T08:39:10.877Z,3.60
2023-09-07T08:41:54.515Z,3.93
2023-09-07T08:44:30.290Z,3.77
2023-09-07T08:46:59.393Z,3.50
2023-09-07T08:49:29.070Z,3.77
2023-09-07T08:52:00.329Z,3.70
2023-09-07T08:54:29.039Z,2.90
2023-09-07T08:56:58.975Z,3.70
2023-09-07T08:59:26.845Z,4.10
2023-09-07T09:01:59.453Z,3.63
2023-09-07T09:04:30.073Z,4.50
2023-09-07T09:06:57.753Z,3.90
2023-09-07T09:09:26.689Z,3.80
2023-09-07T09:11:54.380Z,3.50
2023-09-07T09:14:23.344Z,4.00
2023-09-07T09:16:52.419Z,3.80
2023-09-07T09:19:20.300Z,3.80
2023-09-07T09:21:51.004Z,3.83
2023-09-07T09:24:19.206Z,4.00
2023-09-07T09:26:47.146Z,4.03
2023-09-07T09:29:16.220Z,3.90
2023-09-07T09:31:44.021Z,4.17
2023-09-07T09:34:12.797Z,3.57
2023-09-07T09:36:43.940Z,3.93
2023-09-07T09:39:23.858Z,4.30
2023-09-07T09:41:51.569Z,4.53
2023-09-07T09:44:22.604Z,4.10
2023-09-07T09:46:53.373Z,4.30
2023-09-07T09:49:24.739Z,3.87
2023-09-07T09:51:52.435Z,4.23
2023-09-07T09:54:23.288Z,3.63
2023-09-07T09:56:51.087Z,4.40
2023-09-07T09:59:19.628Z,4.60
2023-09-07T10:01:51.636Z,4.70
2023-09-07T10:04:21.791Z,4.17
2023-09-07T10:06:56.083Z,4.10
2023-09-07T10:09:25.428Z,4.40
2023-09-07T10:11:55.485Z,4.80
2023-09-07T10:14:23.564Z,5.27
2023-09-07T10:16:54.181Z,4.73
2023-09-07T10:19:23.477Z,4.20
2023-09-07T10:21:51.982Z,4.57
2023-09-07T10:24:28.202Z,4.60
2023-09-07T10:27:01.125Z,4.30
2023-09-07T10:29:29.528Z,4.67
2023-09-07T10:31:57.572Z,4.43
2023-09-07T10:34:37.184Z,4.80
2023-09-07T10:37:05.937Z,4.60
2023-09-07T10:39:35.057Z,4.40
2023-09-07T10:42:03.005Z,4.47
2023-09-07T10:44:31.401Z,4.00
2023-09-07T10:46:59.511Z,4.23
2023-09-07T10:49:27.594Z,4.20
2023-09-07T10:51:55.331Z,4.30
2023-09-07T10:54:27.470Z,4.57
2023-09-07T10:56:58.882Z,3.87
2023-09-07T10:59:29.864Z,4.20
2023-09-07T11:02:08.873Z,4.00
2023-09-07T11:04:36.792Z,4.07
2023-09-07T11:07:05.456Z,4.87
2023-09-07T11:09:33.508Z,4.10
2023-09-07T11:12:08.825Z,4.03
2023-09-07T11:14:36.629Z,4.00
2023-09-07T11:17:05.241Z,4.20
2023-09-07T11:19:34.589Z,4.20
2023-09-07T11:22:05.245Z,4.30
2023-09-07T11:24:34.073Z,3.80
2023-09-07T11:27:03.816Z,4.03
2023-09-07T11:29:35.072Z,3.77
2023-09-07T11:32:09.813Z,3.83
2023-09-07T11:34:38.016Z,4.10
2023-09-07T11:37:06.041Z,4.03
2023-09-07T11:39:33.741Z,4.03
2023-09-07T11:42:01.548Z,4.07
2023-09-07T11:44:29.288Z,4.13
2023-09-07T11:46:58.460Z,4.33
2023-09-07T11:49:26.393Z,4.57
2023-09-07T11:51:54.126Z,3.87
2023-09-07T11:54:21.992Z,3.67
2023-09-07T11:56:49.817Z,4.20
2023-09-07T11:59:18.348Z,4.30
2023-09-07T12:01:46.305Z,4.20
2023-09-07T12:04:16.035Z,3.70
2023-09-07T12:06:44.324Z,4.30
2023-09-07T12:09:12.051Z,3.60
2023-09-07T12:11:40.007Z,3.80
2023-09-07T12:14:07.845Z,3.70
2023-09-07T12:16:35.716Z,3.83
2023-09-07T12:19:03.564Z,3.67
2023-09-07T12:21:32.687Z,4.10
2023-09-07T12:24:00.598Z,4.10
2023-09-07T12:26:28.225Z,3.97
2023-09-07T12:28:55.891Z,4.00
2023-09-07T12:31:23.664Z,3.87
2023-09-07T12:33:51.458Z,3.87
2023-09-07T12:36:19.294Z,3.80
2023-09-07T12:38:48.235Z,4.07
2023-09-07T12:41:16.746Z,3.30
2023-09-07T12:43:44.842Z,3.93
2023-09-07T12:46:12.607Z,3.80
2023-09-07T12:48:40.509Z,3.80
2023-09-07T12:51:08.135Z,4.10
2023-09-07T12:53:35.783Z,3.80
2023-09-07T12:56:05.108Z,3.93
2023-09-07T12:58:32.734Z,4.00
2023-09-07T13:01:00.449Z,3.77
2023-09-07T13:03:28.283Z,3.77
2023-09-07T13:05:56.272Z,3.30
2023-09-07T13:08:23.955Z,3.67
2023-09-07T13:10:51.653Z,4.10
2023-09-07T13:13:22.489Z,3.63
2023-09-07T13:15:50.602Z,3.37
2023-09-07T13:18:18.473Z,3.90
2023-09-07T13:20:46.395Z,4.10
2023-09-07T13:23:14.110Z,3.83
2023-09-07T13:25:41.998Z,4.17
2023-09-07T13:28:10.804Z,3.50
2023-09-07T13:30:40.583Z,3.90
2023-09-07T13:33:08.957Z,3.60
2023-09-07T13:35:36.683Z,3.50
2023-09-07T13:38:04.461Z,4.17
2023-09-07T13:40:32.079Z,3.80
2023-09-07T13:43:00.183Z,3.90
2023-09-07T13:45:29.532Z,3.47
2023-09-07T13:47:58.793Z,3.70
2023-09-07T13:50:26.543Z,3.80
2023-09-07T13:52:54.195Z,3.80
2023-09-07T13:55:21.915Z,3.53
2023-09-07T13:57:49.672Z,3.70
2023-09-07T14:00:17.661Z,3.90
2023-09-07T14:02:45.463Z,4.17
2023-09-07T14:05:14.589Z,3.47
2023-09-07T14:07:42.266Z,3.93
2023-09-07T14:10:10.229Z,3.60
2023-09-07T14:12:37.929Z,3.50
2023-09-07T14:15:06.321Z,3.80
2023-09-07T14:17:33.985Z,3.47
2023-09-07T14:20:01.686Z,4.40
2023-09-07T14:22:30.705Z,3.87
2023-09-07T14:24:58.447Z,3.80
2023-09-07T14:27:27.208Z,4.10
2023-09-07T14:29:55.084Z,3.63
2023-09-07T14:32:22.811Z,4.37
2023-09-07T14:34:50.438Z,4.63
2023-09-07T14:37:18.194Z,4.17
2023-09-07T14:39:50.365Z,3.70
2023-09-07T14:42:20.451Z,4.00
2023-09-07T14:44:48.307Z,3.80
2023-09-07T14:47:16.034Z,3.73
2023-09-07T14:49:43.911Z,4.60
2023-09-07T14:52:12.314Z,3.97
2023-09-07T14:54:41.482Z,3.30
2023-09-07T14:57:10.540Z,3.80
2023-09-07T14:59:40.547Z,3.80
2023-09-07T15:02:08.415Z,3.83
2023-09-07T15:04:36.978Z,3.30
2023-09-07T15:07:04.797Z,3.07
2023-09-07T15:09:32.462Z,3.33
2023-09-07T15:12:00.796Z,3.50
2023-09-07T15:14:30.028Z,3.47
2023-09-07T15:16:57.779Z,3.57
2023-09-07T15:19:29.430Z,3.33
2023-09-07T15:21:57.029Z,3.90
2023-09-07T15:24:24.878Z,3.80
2023-09-07T15:26:52.552Z,3.47
2023-09-07T15:29:20.341Z,3.90
2023-09-07T15:31:51.287Z,3.83
2023-09-07T15:34:19.606Z,3.47
2023-09-07T15:36:47.246Z,3.73
2023-09-07T15:39:14.947Z,3.90
2023-09-07T15:41:54.017Z,4.17
2023-09-07T15:44:21.790Z,3.87
2023-09-07T15:46:49.669Z,3.60
2023-09-07T15:49:20.755Z,4.00
2023-09-07T15:51:48.897Z,3.67
2023-09-07T15:54:16.877Z,3.50
2023-09-07T15:56:44.691Z,3.77
2023-09-07T15:59:13.903Z,3.57
2023-09-07T16:01:41.893Z,3.53
2023-09-07T16:04:09.886Z,4.00
2023-09-07T16:06:37.889Z,3.90
2023-09-07T16:09:06.543Z,3.77
2023-09-07T16:11:34.407Z,3.60
2023-09-07T16:14:02.061Z,3.67
2023-09-07T16:16:31.076Z,3.30
2023-09-07T16:18:59.039Z,3.70
2023-09-07T16:21:26.744Z,3.30
2023-09-07T16:23:54.429Z,3.37
2023-09-07T16:26:22.451Z,4.03
2023-09-07T16:28:50.606Z,3.40
2023-09-07T16:31:18.648Z,3.90
2023-09-07T16:33:47.705Z,3.50
2023-09-07T16:36:15.314Z,3.57
2023-09-07T16:38:42.943Z,3.33
2023-09-07T16:41:10.748Z,4.57
2023-09-07T16:43:38.419Z,3.80
2023-09-07T16:46:06.233Z,3.83
2023-09-07T16:48:34.482Z,3.50
2023-09-07T16:51:03.919Z,3.47
2023-09-07T16:53:32.673Z,3.80
2023-09-07T16:56:00.498Z,3.50
2023-09-07T16:58:42.717Z,3.50
2023-09-07T17:01:16.033Z,3.57
2023-09-07T17:03:43.985Z,3.80
2023-09-07T17:06:13.036Z,4.50
2023-09-07T17:08:40.729Z,4.20
2023-09-07T17:11:08.498Z,4.50
2023-09-07T17:13:37.921Z,4.40
2023-09-07T17:16:07.911Z,3.97
2023-09-07T17:18:36.111Z,3.70
2023-09-07T17:21:06.707Z,4.10
2023-09-07T17:23:35.779Z,3.93
2023-09-07T17:26:06.034Z,3.70
2023-09-07T17:28:34.150Z,4.00
2023-09-07T17:31:02.465Z,4.20
2023-09-07T17:33:30.421Z,4.50
2023-09-07T17:35:58.569Z,4.17
2023-09-07T17:38:27.946Z,4.33
2023-09-07T17:40:57.042Z,3.60
2023-09-07T17:43:24.669Z,4.27
2023-09-07T17:45:52.355Z,4.17
2023-09-07T17:48:20.298Z,3.97
2023-09-07T17:50:50.005Z,3.97
2023-09-07T17:53:17.900Z,3.90
2023-09-07T17:55:46.252Z,4.43
2023-09-07T17:58:15.547Z,4.40
2023-09-07T18:00:45.358Z,4.50
2023-09-07T18:03:13.773Z,4.60
2023-09-07T18:05:41.985Z,4.40
2023-09-07T18:08:09.983Z,4.33
2023-09-07T18:10:37.748Z,4.90
2023-09-07T18:13:05.711Z,4.60
2023-09-07T18:15:34.785Z,5.07
2023-09-07T18:18:02.700Z,4.30
2023-09-07T18:20:30.515Z,4.47
2023-09-07T18:22:58.173Z,4.57
2023-09-07T18:25:25.836Z,4.70
2023-09-07T18:27:53.669Z,4.63
2023-09-07T18:30:21.830Z,5.13
2023-09-07T18:32:51.336Z,4.50
2023-09-07T18:35:19.295Z,4.90
2023-09-07T18:37:47.291Z,4.80
2023-09-07T18:40:15.403Z,4.97
2023-09-07T18:42:43.594Z,5.60
2023-09-07T18:45:12.206Z,4.77
2023-09-07T18:47:42.213Z,4.33
2023-09-07T18:50:13.358Z,4.97
2023-09-07T18:52:42.771Z,4.70
2023-09-07T18:55:11.548Z,4.97
2023-09-07T18:57:39.985Z,4.57
2023-09-07T19:00:09.078Z,5.10
2023-09-07T19:02:37.786Z,4.40
2023-09-07T19:05:06.168Z,5.07
2023-09-07T19:07:36.093Z,4.30
2023-09-07T19:10:04.215Z,4.30
2023-09-07T19:12:31.891Z,4.87
2023-09-07T19:14:59.581Z,4.47
2023-09-07T19:17:27.403Z,4.83
2023-09-07T19:19:55.563Z,4.87
2023-09-07T19:22:23.236Z,4.20
2023-09-07T19:24:55.417Z,4.57
2023-09-07T19:27:24.278Z,3.70
2023-09-07T19:29:52.597Z,4.20
2023-09-07T19:32:26.309Z,4.33
2023-09-07T19:34:54.544Z,3.83
2023-09-07T19:37:23.551Z,4.63
2023-09-07T19:39:52.836Z,4.60
2023-09-07T19:42:21.864Z,5.20
2023-09-07T19:44:50.519Z,5.27
2023-09-07T19:47:18.503Z,5.00
2023-09-07T19:49:46.419Z,5.10
2023-09-07T19:52:14.215Z,5.50
2023-09-07T19:54:42.117Z,4.63
2023-09-07T19:57:11.559Z,4.53
2023-09-07T19:59:42.915Z,4.80
2023-09-07T20:02:10.855Z,5.00
2023-09-07T20:04:40.926Z,5.13
2023-09-07T20:07:08.581Z,4.83
2023-09-07T20:09:36.477Z,4.90
2023-09-07T20:12:04.374Z,5.20
2023-09-07T20:14:33.579Z,4.57
2023-09-07T20:17:01.367Z,5.20
2023-09-07T20:19:42.459Z,5.30
2023-09-07T20:22:10.352Z,5.27
2023-09-07T20:24:38.521Z,5.37
2023-09-07T20:27:06.920Z,5.10
2023-09-07T20:29:37.004Z,5.30
2023-09-07T20:32:04.948Z,5.10
2023-09-07T20:34:32.966Z,5.33
2023-09-07T20:37:00.754Z,5.10
2023-09-07T20:39:28.723Z,4.60
2023-09-07T20:41:57.841Z,4.33
2023-09-07T20:44:25.588Z,4.70
2023-09-07T20:46:57.274Z,4.60
2023-09-07T20:49:25.165Z,4.43
2023-09-07T20:51:53.054Z,5.00
2023-09-07T20:54:21.134Z,5.97
2023-09-07T20:56:49.158Z,5.03
2023-09-07T20:59:16.960Z,5.07
2023-09-07T21:01:48.009Z,5.07
2023-09-07T21:04:17.694Z,4.90
2023-09-07T21:06:45.899Z,5.27
2023-09-07T21:09:16.527Z,5.40
2023-09-07T21:11:44.747Z,5.53
2023-09-07T21:14:12.486Z,5.90
2023-09-07T21:16:40.524Z,5.57
2023-09-07T21:19:09.250Z,5.57
2023-09-07T21:21:38.164Z,5.83
2023-09-07T21:24:06.570Z,6.50
2023-09-07T21:26:34.418Z,6.33
2023-09-07T21:29:02.101Z,6.93
2023-09-07T21:31:29.785Z,6.40
2023-09-07T21:33:57.587Z,7.07
2023-09-07T21:36:25.450Z,6.20
2023-09-07T21:38:54.644Z,6.87
2023-09-07T21:41:23.722Z,6.10
2023-09-07T21:43:53.633Z,6.40
2023-09-07T21:46:22.987Z,6.30
2023-09-07T21:48:50.777Z,6.70
2023-09-07T21:51:18.606Z,6.43
2023-09-07T21:53:46.319Z,6.97
2023-09-07T21:56:15.351Z,6.93
2023-09-07T21:58:43.165Z,6.70
2023-09-07T22:01:10.932Z,7.13
2023-09-07T22:03:38.713Z,6.53
2023-09-07T22:06:07.077Z,7.00
2023-09-07T22:08:35.189Z,6.80
2023-09-07T22:11:04.175Z,6.77
2023-09-07T22:13:40.293Z,7.10
2023-09-07T22:16:09.145Z,7.00
2023-09-07T22:18:37.468Z,6.00
2023-09-07T22:21:06.799Z,6.60
2023-09-07T22:23:42.735Z,6.60
2023-09-07T22:26:11.820Z,6.67
2023-09-07T22:28:40.863Z,6.10
2023-09-07T22:31:08.948Z,6.90
2023-09-07T22:33:36.751Z,5.97
2023-09-07T22:36:05.602Z,5.90
2023-09-07T22:38:33.722Z,6.07
2023-09-07T22:41:01.560Z,5.87
2023-09-07T22:43:29.175Z,5.67
2023-09-07T22:45:58.562Z,5.80
2023-09-07T22:48:26.282Z,6.50
2023-09-07T22:50:54.189Z,5.40
2023-09-07T22:53:23.276Z,5.47
2023-09-07T22:55:51.511Z,5.50
2023-09-07T22:58:21.701Z,5.33
2023-09-07T23:00:50.682Z,5.60
2023-09-07T23:03:20.171Z,5.27
2023-09-07T23:05:47.905Z,5.70
2023-09-07T23:08:16.103Z,5.80
2023-09-07T23:10:44.793Z,5.57
2023-09-07T23:13:12.456Z,5.33
2023-09-07T23:15:40.220Z,5.30
2023-09-07T23:18:08.480Z,4.90
2023-09-07T23:20:38.154Z,5.53
2023-09-07T23:23:05.951Z,5.80
2023-09-07T23:25:33.903Z,5.50
2023-09-07T23:28:01.664Z,4.73
2023-09-07T23:30:29.375Z,5.63
2023-09-07T23:32:57.031Z,5.70
2023-09-07T23:35:24.974Z,5.60
2023-09-07T23:37:54.216Z,5.83
2023-09-07T23:40:22.407Z,5.40
2023-09-07T23:42:50.506Z,5.40
2023-09-07T23:45:18.253Z,5.20
2023-09-07T23:47:45.932Z,5.50
2023-09-07T23:50:13.560Z,5.10
2023-09-07T23:52:42.871Z,5.43
2023-09-07T23:55:12.077Z,5.10
2023-09-07T23:57:39.702Z,5.30
